sensor_id;sensor_type;location;lat;lon;timestamp;temperature;humidity
69533;DHT22;56729;52.036;5.332;2022-09-19T00:00:31;9.30;99.90
69533;DHT22;56729;52.036;5.332;2022-09-19T00:01:37;9.40;99.90
69533;DHT22;56729;52.036;5.332;2022-09-19T00:02:40;9.40;99.90
69533;DHT22;56729;52.036;5.332;2022-09-19T00:03:44;9.40;99.90
69533;DHT22;56729;52.036;5.332;2022-09-19T00:04:46;9.40;99.90
69533;DHT22;56729;52.036;5.332;2022-09-19T00:05:48;9.40;99.90
69533;DHT22;56729;52.036;5.332;2022-09-19T00:06:51;9.40;99.90
69533;DHT22;56729;52.036;5.332;2022-09-19T00:07:55;9.40;99.90
69533;DHT22;56729;52.036;5.332;2022-09-19T00:08:58;9.40;99.90
69533;DHT22;56729;52.036;5.332;2022-09-19T00:10:00;9.40;99.90
69533;DHT22;56729;52.036;5.332;2022-09-19T00:11:03;9.40;99.90
69533;DHT22;56729;52.036;5.332;2022-09-19T00:12:05;9.40;99.90
69533;DHT22;56729;52.036;5.332;2022-09-19T00:13:08;9.40;99.90
69533;DHT22;56729;52.036;5.332;2022-09-19T00:14:12;9.40;99.90
69533;DHT22;56729;52.036;5.332;2022-09-19T00:15:15;9.40;99.90
69533;DHT22;56729;52.036;5.332;2022-09-19T00:16:28;9.40;99.90
69533;DHT22;56729;52.036;5.332;2022-09-19T00:17:31;9.40;99.90
69533;DHT22;56729;52.036;5.332;2022-09-19T00:18:34;9.40;99.90
69533;DHT22;56729;52.036;5.332;2022-09-19T00:19:37;9.40;99.90
69533;DHT22;56729;52.036;5.332;2022-09-19T00:20:40;9.40;99.90
69533;DHT22;56729;52.036;5.332;2022-09-19T00:21:43;9.40;99.90
69533;DHT22;56729;52.036;5.332;2022-09-19T00:22:45;9.40;99.90
69533;DHT22;56729;52.036;5.332;2022-09-19T00:24:10;9.40;99.90
69533;DHT22;56729;52.036;5.332;2022-09-19T00:25:31;9.40;99.90
69533;DHT22;56729;52.036;5.332;2022-09-19T00:26:36;9.40;99.90
69533;DHT22;56729;52.036;5.332;2022-09-19T00:27:39;9.40;99.90
69533;DHT22;56729;52.036;5.332;2022-09-19T00:28:41;9.50;99.90
69533;DHT22;56729;52.036;5.332;2022-09-19T00:29:44;9.50;99.90
69533;DHT22;56729;52.036;5.332;2022-09-19T00:30:46;9.50;99.90
69533;DHT22;56729;52.036;5.332;2022-09-19T00:31:48;9.50;99.90
69533;DHT22;56729;52.036;5.332;2022-09-19T00:32:51;9.50;99.90
69533;DHT22;56729;52.036;5.332;2022-09-19T00:33:54;9.50;99.90
69533;DHT22;56729;52.036;5.332;2022-09-19T00:34:57;9.50;99.90
69533;DHT22;56729;52.036;5.332;2022-09-19T00:36:01;9.60;99.90
69533;DHT22;56729;52.036;5.332;2022-09-19T00:37:05;9.60;99.90
69533;DHT22;56729;52.036;5.332;2022-09-19T00:38:07;9.60;99.90
69533;DHT22;56729;52.036;5.332;2022-09-19T00:39:11;9.60;99.90
69533;DHT22;56729;52.036;5.332;2022-09-19T00:40:13;9.60;99.90
69533;DHT22;56729;52.036;5.332;2022-09-19T00:41:21;9.60;99.90
69533;DHT22;56729;52.036;5.332;2022-09-19T00:42:25;9.60;99.90
69533;DHT22;56729;52.036;5.332;2022-09-19T00:43:50;9.60;99.90
69533;DHT22;56729;52.036;5.332;2022-09-19T00:44:58;9.70;99.90
69533;DHT22;56729;52.036;5.332;2022-09-19T00:46:02;9.60;99.90
69533;DHT22;56729;52.036;5.332;2022-09-19T00:47:15;9.60;99.90
69533;DHT22;56729;52.036;5.332;2022-09-19T00:48:21;9.70;99.90
69533;DHT22;56729;52.036;5.332;2022-09-19T00:49:25;9.70;99.90
69533;DHT22;56729;52.036;5.332;2022-09-19T00:50:29;9.70;99.90
69533;DHT22;56729;52.036;5.332;2022-09-19T00:51:35;9.70;99.90
69533;DHT22;56729;52.036;5.332;2022-09-19T00:52:59;9.70;99.90
69533;DHT22;56729;52.036;5.332;2022-09-19T00:54:07;9.70;99.90
69533;DHT22;56729;52.036;5.332;2022-09-19T00:55:09;9.70;99.90
69533;DHT22;56729;52.036;5.332;2022-09-19T00:56:11;9.70;99.90
69533;DHT22;56729;52.036;5.332;2022-09-19T00:57:15;9.70;99.90
69533;DHT22;56729;52.036;5.332;2022-09-19T00:58:54;9.80;99.90
69533;DHT22;56729;52.036;5.332;2022-09-19T00:59:49;9.70;99.90
69533;DHT22;56729;52.036;5.332;2022-09-19T01:00:51;9.70;99.90
69533;DHT22;56729;52.036;5.332;2022-09-19T01:01:55;9.80;99.90
69533;DHT22;56729;52.036;5.332;2022-09-19T01:02:57;9.70;99.90
69533;DHT22;56729;52.036;5.332;2022-09-19T01:04:00;9.80;99.90
69533;DHT22;56729;52.036;5.332;2022-09-19T01:05:03;9.70;99.90
69533;DHT22;56729;52.036;5.332;2022-09-19T01:07:43;9.70;99.90
69533;DHT22;56729;52.036;5.332;2022-09-19T01:10:05;9.70;99.90
69533;DHT22;56729;52.036;5.332;2022-09-19T01:11:31;9.70;99.90
69533;DHT22;56729;52.036;5.332;2022-09-19T01:12:46;9.70;99.90
69533;DHT22;56729;52.036;5.332;2022-09-19T01:16:49;9.60;99.90
69533;DHT22;56729;52.036;5.332;2022-09-19T01:17:58;9.60;99.90
69533;DHT22;56729;52.036;5.332;2022-09-19T01:21:17;9.60;99.90
69533;DHT22;56729;52.036;5.332;2022-09-19T01:23:02;9.50;99.90
69533;DHT22;56729;52.036;5.332;2022-09-19T01:25:33;9.50;99.90
69533;DHT22;56729;52.036;5.332;2022-09-19T01:28:24;9.40;99.70
69533;DHT22;56729;52.036;5.332;2022-09-19T01:29:35;9.40;99.70
69533;DHT22;56729;52.036;5.332;2022-09-19T01:30:50;9.30;99.70
69533;DHT22;56729;52.036;5.332;2022-09-19T01:32:19;9.30;99.70
69533;DHT22;56729;52.036;5.332;2022-09-19T01:33:23;9.20;99.80
69533;DHT22;56729;52.036;5.332;2022-09-19T01:34:42;9.20;99.80
69533;DHT22;56729;52.036;5.332;2022-09-19T01:35:49;9.20;99.90
69533;DHT22;56729;52.036;5.332;2022-09-19T01:38:28;9.20;99.90
69533;DHT22;56729;52.036;5.332;2022-09-19T01:39:34;9.10;99.90
69533;DHT22;56729;52.036;5.332;2022-09-19T01:40:37;9.20;99.90
69533;DHT22;56729;52.036;5.332;2022-09-19T01:41:54;9.10;99.90
69533;DHT22;56729;52.036;5.332;2022-09-19T01:42:56;9.10;99.80
69533;DHT22;56729;52.036;5.332;2022-09-19T01:44:00;9.10;99.80
69533;DHT22;56729;52.036;5.332;2022-09-19T01:45:09;9.10;99.90
69533;DHT22;56729;52.036;5.332;2022-09-19T01:48:16;9.10;99.90
69533;DHT22;56729;52.036;5.332;2022-09-19T01:55:32;8.90;99.90
69533;DHT22;56729;52.036;5.332;2022-09-19T01:56:41;8.90;99.90
69533;DHT22;56729;52.036;5.332;2022-09-19T01:58:07;8.90;99.90
69533;DHT22;56729;52.036;5.332;2022-09-19T02:00:26;8.80;99.90
69533;DHT22;56729;52.036;5.332;2022-09-19T02:04:33;8.80;99.90
69533;DHT22;56729;52.036;5.332;2022-09-19T02:05:46;8.80;99.90
69533;DHT22;56729;52.036;5.332;2022-09-19T02:06:59;8.80;99.90
69533;DHT22;56729;52.036;5.332;2022-09-19T02:08:11;8.80;99.90
69533;DHT22;56729;52.036;5.332;2022-09-19T02:09:45;8.70;99.90
69533;DHT22;56729;52.036;5.332;2022-09-19T02:10:59;8.70;99.90
69533;DHT22;56729;52.036;5.332;2022-09-19T02:12:09;8.70;99.90
69533;DHT22;56729;52.036;5.332;2022-09-19T02:13:13;8.70;99.90
69533;DHT22;56729;52.036;5.332;2022-09-19T02:14:23;8.70;99.90
69533;DHT22;56729;52.036;5.332;2022-09-19T02:15:35;8.70;99.90
69533;DHT22;56729;52.036;5.332;2022-09-19T02:16:52;8.70;99.90
69533;DHT22;56729;52.036;5.332;2022-09-19T02:17:58;8.70;99.90
69533;DHT22;56729;52.036;5.332;2022-09-19T02:19:04;8.70;99.90
69533;DHT22;56729;52.036;5.332;2022-09-19T02:20:09;8.70;99.90
69533;DHT22;56729;52.036;5.332;2022-09-19T02:21:18;8.70;99.80
69533;DHT22;56729;52.036;5.332;2022-09-19T02:22:28;8.70;99.60
69533;DHT22;56729;52.036;5.332;2022-09-19T02:23:36;8.60;99.60
69533;DHT22;56729;52.036;5.332;2022-09-19T02:24:41;8.60;99.70
69533;DHT22;56729;52.036;5.332;2022-09-19T02:25:45;8.60;99.80
69533;DHT22;56729;52.036;5.332;2022-09-19T02:26:49;8.60;99.80
69533;DHT22;56729;52.036;5.332;2022-09-19T02:28:05;8.60;99.80
69533;DHT22;56729;52.036;5.332;2022-09-19T02:29:11;8.60;99.80
69533;DHT22;56729;52.036;5.332;2022-09-19T02:30:15;8.60;99.80
69533;DHT22;56729;52.036;5.332;2022-09-19T02:31:21;8.60;99.80
69533;DHT22;56729;52.036;5.332;2022-09-19T02:32:29;8.60;99.80
69533;DHT22;56729;52.036;5.332;2022-09-19T02:33:32;8.60;99.80
69533;DHT22;56729;52.036;5.332;2022-09-19T02:34:37;8.60;99.90
69533;DHT22;56729;52.036;5.332;2022-09-19T02:37:09;8.60;99.90
69533;DHT22;56729;52.036;5.332;2022-09-19T02:38:26;8.60;99.90
69533;DHT22;56729;52.036;5.332;2022-09-19T02:41:13;8.60;99.90
69533;DHT22;56729;52.036;5.332;2022-09-19T02:45:37;8.50;99.80
69533;DHT22;56729;52.036;5.332;2022-09-19T02:46:59;8.50;99.70
69533;DHT22;56729;52.036;5.332;2022-09-19T02:51:54;8.50;99.90
69533;DHT22;56729;52.036;5.332;2022-09-19T02:52:59;8.50;99.90
69533;DHT22;56729;52.036;5.332;2022-09-19T02:54:09;8.50;99.90
69533;DHT22;56729;52.036;5.332;2022-09-19T02:55:16;8.50;99.90
69533;DHT22;56729;52.036;5.332;2022-09-19T02:56:22;8.50;99.90
69533;DHT22;56729;52.036;5.332;2022-09-19T02:57:30;8.50;99.90
69533;DHT22;56729;52.036;5.332;2022-09-19T02:58:40;8.50;99.90
69533;DHT22;56729;52.036;5.332;2022-09-19T02:59:47;8.50;99.90
69533;DHT22;56729;52.036;5.332;2022-09-19T03:00:55;8.50;99.90
69533;DHT22;56729;52.036;5.332;2022-09-19T03:02:04;8.50;99.90
69533;DHT22;56729;52.036;5.332;2022-09-19T03:03:14;8.50;99.90
69533;DHT22;56729;52.036;5.332;2022-09-19T03:04:39;8.50;99.90
69533;DHT22;56729;52.036;5.332;2022-09-19T03:05:41;8.50;99.90
69533;DHT22;56729;52.036;5.332;2022-09-19T03:07:01;8.50;99.90
69533;DHT22;56729;52.036;5.332;2022-09-19T03:08:07;8.60;99.90
69533;DHT22;56729;52.036;5.332;2022-09-19T03:09:12;8.50;99.90
69533;DHT22;56729;52.036;5.332;2022-09-19T03:10:19;8.50;99.90
69533;DHT22;56729;52.036;5.332;2022-09-19T03:11:46;8.50;99.90
69533;DHT22;56729;52.036;5.332;2022-09-19T03:12:57;8.50;99.90
69533;DHT22;56729;52.036;5.332;2022-09-19T03:14:01;8.50;99.90
69533;DHT22;56729;52.036;5.332;2022-09-19T03:15:05;8.50;99.90
69533;DHT22;56729;52.036;5.332;2022-09-19T03:16:33;8.50;99.80
69533;DHT22;56729;52.036;5.332;2022-09-19T03:17:45;8.50;99.80
69533;DHT22;56729;52.036;5.332;2022-09-19T03:18:53;8.50;99.90
69533;DHT22;56729;52.036;5.332;2022-09-19T03:19:58;8.50;99.90
69533;DHT22;56729;52.036;5.332;2022-09-19T03:21:11;8.50;99.90
69533;DHT22;56729;52.036;5.332;2022-09-19T03:22:14;8.40;99.90
69533;DHT22;56729;52.036;5.332;2022-09-19T03:23:21;8.40;99.90
69533;DHT22;56729;52.036;5.332;2022-09-19T03:24:25;8.40;99.80
69533;DHT22;56729;52.036;5.332;2022-09-19T03:25:28;8.40;99.60
69533;DHT22;56729;52.036;5.332;2022-09-19T03:26:32;8.40;99.70
69533;DHT22;56729;52.036;5.332;2022-09-19T03:27:37;8.40;99.70
69533;DHT22;56729;52.036;5.332;2022-09-19T03:28:39;8.30;99.70
69533;DHT22;56729;52.036;5.332;2022-09-19T03:29:41;8.30;99.70
69533;DHT22;56729;52.036;5.332;2022-09-19T03:30:43;8.30;99.60
69533;DHT22;56729;52.036;5.332;2022-09-19T03:31:45;8.30;99.60
69533;DHT22;56729;52.036;5.332;2022-09-19T03:32:48;8.30;99.50
69533;DHT22;56729;52.036;5.332;2022-09-19T03:33:51;8.30;99.60
69533;DHT22;56729;52.036;5.332;2022-09-19T03:34:53;8.30;99.70
69533;DHT22;56729;52.036;5.332;2022-09-19T03:35:58;8.30;99.70
69533;DHT22;56729;52.036;5.332;2022-09-19T03:37:08;8.30;99.70
69533;DHT22;56729;52.036;5.332;2022-09-19T03:38:10;8.20;99.60
69533;DHT22;56729;52.036;5.332;2022-09-19T03:39:12;8.20;99.70
69533;DHT22;56729;52.036;5.332;2022-09-19T03:40:16;8.20;99.70
69533;DHT22;56729;52.036;5.332;2022-09-19T03:41:20;8.20;99.70
69533;DHT22;56729;52.036;5.332;2022-09-19T03:42:23;8.20;99.80
69533;DHT22;56729;52.036;5.332;2022-09-19T03:43:25;8.20;99.80
69533;DHT22;56729;52.036;5.332;2022-09-19T03:44:28;8.20;99.90
69533;DHT22;56729;52.036;5.332;2022-09-19T03:45:31;8.20;99.90
69533;DHT22;56729;52.036;5.332;2022-09-19T03:46:33;8.20;99.90
69533;DHT22;56729;52.036;5.332;2022-09-19T03:47:35;8.20;99.90
69533;DHT22;56729;52.036;5.332;2022-09-19T03:48:40;8.20;99.80
69533;DHT22;56729;52.036;5.332;2022-09-19T03:49:42;8.30;99.80
69533;DHT22;56729;52.036;5.332;2022-09-19T03:50:44;8.20;99.70
69533;DHT22;56729;52.036;5.332;2022-09-19T03:51:48;8.20;99.90
69533;DHT22;56729;52.036;5.332;2022-09-19T03:52:51;8.20;99.70
69533;DHT22;56729;52.036;5.332;2022-09-19T03:53:53;8.20;99.70
69533;DHT22;56729;52.036;5.332;2022-09-19T03:55:00;8.20;99.60
69533;DHT22;56729;52.036;5.332;2022-09-19T03:56:04;8.20;99.50
69533;DHT22;56729;52.036;5.332;2022-09-19T03:57:07;8.20;99.50
69533;DHT22;56729;52.036;5.332;2022-09-19T03:58:09;8.20;99.70
69533;DHT22;56729;52.036;5.332;2022-09-19T03:59:12;8.20;99.70
69533;DHT22;56729;52.036;5.332;2022-09-19T04:00:17;8.10;99.60
69533;DHT22;56729;52.036;5.332;2022-09-19T04:01:19;8.10;99.70
69533;DHT22;56729;52.036;5.332;2022-09-19T04:02:25;8.20;99.80
69533;DHT22;56729;52.036;5.332;2022-09-19T04:03:27;8.20;99.80
69533;DHT22;56729;52.036;5.332;2022-09-19T04:04:29;8.20;99.90
69533;DHT22;56729;52.036;5.332;2022-09-19T04:05:32;8.20;99.90
69533;DHT22;56729;52.036;5.332;2022-09-19T04:06:38;8.20;99.90
69533;DHT22;56729;52.036;5.332;2022-09-19T04:07:43;8.20;99.80
69533;DHT22;56729;52.036;5.332;2022-09-19T04:08:45;8.20;99.80
69533;DHT22;56729;52.036;5.332;2022-09-19T04:09:48;8.20;99.80
69533;DHT22;56729;52.036;5.332;2022-09-19T04:10:50;8.20;99.90
69533;DHT22;56729;52.036;5.332;2022-09-19T04:11:53;8.20;99.90
69533;DHT22;56729;52.036;5.332;2022-09-19T04:12:56;8.20;99.90
69533;DHT22;56729;52.036;5.332;2022-09-19T04:13:59;8.20;99.80
69533;DHT22;56729;52.036;5.332;2022-09-19T04:15:02;8.20;99.70
69533;DHT22;56729;52.036;5.332;2022-09-19T04:16:05;8.20;99.60
69533;DHT22;56729;52.036;5.332;2022-09-19T04:17:08;8.20;99.60
69533;DHT22;56729;52.036;5.332;2022-09-19T04:18:32;8.20;99.70
69533;DHT22;56729;52.036;5.332;2022-09-19T04:19:37;8.20;99.90
69533;DHT22;56729;52.036;5.332;2022-09-19T04:20:57;8.20;99.90
69533;DHT22;56729;52.036;5.332;2022-09-19T04:21:59;8.20;99.90
69533;DHT22;56729;52.036;5.332;2022-09-19T04:23:10;8.20;99.90
69533;DHT22;56729;52.036;5.332;2022-09-19T04:24:38;8.20;99.90
69533;DHT22;56729;52.036;5.332;2022-09-19T04:26:19;8.20;99.90
69533;DHT22;56729;52.036;5.332;2022-09-19T04:27:23;8.20;99.90
69533;DHT22;56729;52.036;5.332;2022-09-19T04:28:25;8.20;99.90
69533;DHT22;56729;52.036;5.332;2022-09-19T04:29:27;8.20;99.80
69533;DHT22;56729;52.036;5.332;2022-09-19T04:30:31;8.20;99.80
69533;DHT22;56729;52.036;5.332;2022-09-19T04:31:35;8.30;99.80
69533;DHT22;56729;52.036;5.332;2022-09-19T04:32:40;8.30;99.80
69533;DHT22;56729;52.036;5.332;2022-09-19T04:33:44;8.20;99.80
69533;DHT22;56729;52.036;5.332;2022-09-19T04:34:47;8.20;99.90
69533;DHT22;56729;52.036;5.332;2022-09-19T04:35:49;8.30;99.90
69533;DHT22;56729;52.036;5.332;2022-09-19T04:36:52;8.20;99.90
69533;DHT22;56729;52.036;5.332;2022-09-19T04:37:54;8.20;99.90
69533;DHT22;56729;52.036;5.332;2022-09-19T04:38:56;8.30;99.80
69533;DHT22;56729;52.036;5.332;2022-09-19T04:40:04;8.30;99.70
69533;DHT22;56729;52.036;5.332;2022-09-19T04:41:06;8.20;99.70
69533;DHT22;56729;52.036;5.332;2022-09-19T04:42:08;8.30;99.80
69533;DHT22;56729;52.036;5.332;2022-09-19T04:43:12;8.30;99.80
69533;DHT22;56729;52.036;5.332;2022-09-19T04:44:20;8.30;99.80
69533;DHT22;56729;52.036;5.332;2022-09-19T04:45:56;8.30;99.80
69533;DHT22;56729;52.036;5.332;2022-09-19T04:47:04;8.20;99.90
69533;DHT22;56729;52.036;5.332;2022-09-19T04:48:08;8.20;99.90
69533;DHT22;56729;52.036;5.332;2022-09-19T04:49:10;8.20;99.90
69533;DHT22;56729;52.036;5.332;2022-09-19T04:50:13;8.30;99.90
69533;DHT22;56729;52.036;5.332;2022-09-19T04:51:15;8.30;99.90
69533;DHT22;56729;52.036;5.332;2022-09-19T04:52:18;8.20;99.90
69533;DHT22;56729;52.036;5.332;2022-09-19T04:53:22;8.30;99.90
69533;DHT22;56729;52.036;5.332;2022-09-19T04:54:28;8.20;99.90
69533;DHT22;56729;52.036;5.332;2022-09-19T04:55:30;8.30;99.80
69533;DHT22;56729;52.036;5.332;2022-09-19T04:56:39;8.30;99.60
69533;DHT22;56729;52.036;5.332;2022-09-19T04:57:42;8.20;99.50
69533;DHT22;56729;52.036;5.332;2022-09-19T04:58:46;8.20;99.60
69533;DHT22;56729;52.036;5.332;2022-09-19T04:59:48;8.20;99.70
69533;DHT22;56729;52.036;5.332;2022-09-19T05:00:54;8.20;99.60
69533;DHT22;56729;52.036;5.332;2022-09-19T05:01:59;8.20;99.50
69533;DHT22;56729;52.036;5.332;2022-09-19T05:04:09;8.20;99.50
69533;DHT22;56729;52.036;5.332;2022-09-19T05:05:10;8.10;99.50
69533;DHT22;56729;52.036;5.332;2022-09-19T05:06:12;8.10;99.50
69533;DHT22;56729;52.036;5.332;2022-09-19T05:07:15;8.10;99.50
69533;DHT22;56729;52.036;5.332;2022-09-19T05:08:21;8.10;99.50
69533;DHT22;56729;52.036;5.332;2022-09-19T05:09:29;8.10;99.60
69533;DHT22;56729;52.036;5.332;2022-09-19T05:10:36;8.10;99.70
69533;DHT22;56729;52.036;5.332;2022-09-19T05:11:41;8.10;99.60
69533;DHT22;56729;52.036;5.332;2022-09-19T05:12:45;8.10;99.50
69533;DHT22;56729;52.036;5.332;2022-09-19T05:13:48;8.10;99.50
69533;DHT22;56729;52.036;5.332;2022-09-19T05:14:54;8.10;99.60
69533;DHT22;56729;52.036;5.332;2022-09-19T05:15:58;8.10;99.60
69533;DHT22;56729;52.036;5.332;2022-09-19T05:17:01;8.10;99.60
69533;DHT22;56729;52.036;5.332;2022-09-19T05:18:03;8.10;99.60
69533;DHT22;56729;52.036;5.332;2022-09-19T05:19:05;8.10;99.70
69533;DHT22;56729;52.036;5.332;2022-09-19T05:20:07;8.10;99.60
69533;DHT22;56729;52.036;5.332;2022-09-19T05:21:12;8.00;99.50
69533;DHT22;56729;52.036;5.332;2022-09-19T05:22:14;8.10;99.50
69533;DHT22;56729;52.036;5.332;2022-09-19T05:23:16;8.00;99.50
69533;DHT22;56729;52.036;5.332;2022-09-19T05:24:18;8.00;99.60
69533;DHT22;56729;52.036;5.332;2022-09-19T05:25:20;8.00;99.50
69533;DHT22;56729;52.036;5.332;2022-09-19T05:26:22;8.00;99.50
69533;DHT22;56729;52.036;5.332;2022-09-19T05:27:31;8.00;99.50
69533;DHT22;56729;52.036;5.332;2022-09-19T05:28:34;8.00;99.40
69533;DHT22;56729;52.036;5.332;2022-09-19T05:29:36;8.00;99.50
69533;DHT22;56729;52.036;5.332;2022-09-19T05:30:47;8.00;99.50
69533;DHT22;56729;52.036;5.332;2022-09-19T05:31:52;8.00;99.50
69533;DHT22;56729;52.036;5.332;2022-09-19T05:33:28;8.00;99.70
69533;DHT22;56729;52.036;5.332;2022-09-19T05:34:33;7.90;99.60
69533;DHT22;56729;52.036;5.332;2022-09-19T05:35:35;7.90;99.60
69533;DHT22;56729;52.036;5.332;2022-09-19T05:37:12;7.90;99.70
69533;DHT22;56729;52.036;5.332;2022-09-19T05:38:47;7.90;99.80
69533;DHT22;56729;52.036;5.332;2022-09-19T05:40:04;7.90;99.90
69533;DHT22;56729;52.036;5.332;2022-09-19T05:41:17;7.90;99.80
69533;DHT22;56729;52.036;5.332;2022-09-19T05:42:30;7.90;99.90
69533;DHT22;56729;52.036;5.332;2022-09-19T05:43:32;8.00;99.90
69533;DHT22;56729;52.036;5.332;2022-09-19T05:44:34;7.90;99.90
69533;DHT22;56729;52.036;5.332;2022-09-19T05:45:38;8.00;99.90
69533;DHT22;56729;52.036;5.332;2022-09-19T05:46:39;8.00;99.90
69533;DHT22;56729;52.036;5.332;2022-09-19T05:47:41;8.00;99.90
69533;DHT22;56729;52.036;5.332;2022-09-19T05:48:47;8.00;99.90
69533;DHT22;56729;52.036;5.332;2022-09-19T05:49:50;8.00;99.90
69533;DHT22;56729;52.036;5.332;2022-09-19T05:50:53;8.00;99.90
69533;DHT22;56729;52.036;5.332;2022-09-19T05:51:57;8.10;99.90
69533;DHT22;56729;52.036;5.332;2022-09-19T05:53:20;8.10;99.90
69533;DHT22;56729;52.036;5.332;2022-09-19T05:54:57;8.10;99.90
69533;DHT22;56729;52.036;5.332;2022-09-19T05:56:09;8.20;99.90
69533;DHT22;56729;52.036;5.332;2022-09-19T05:57:20;8.20;99.90
69533;DHT22;56729;52.036;5.332;2022-09-19T05:58:22;8.20;99.90
69533;DHT22;56729;52.036;5.332;2022-09-19T05:59:25;8.20;99.90
69533;DHT22;56729;52.036;5.332;2022-09-19T06:00:27;8.20;99.90
69533;DHT22;56729;52.036;5.332;2022-09-19T06:01:30;8.30;99.90
69533;DHT22;56729;52.036;5.332;2022-09-19T06:02:34;8.20;99.90
69533;DHT22;56729;52.036;5.332;2022-09-19T06:03:37;8.30;99.90
69533;DHT22;56729;52.036;5.332;2022-09-19T06:04:44;8.30;99.90
69533;DHT22;56729;52.036;5.332;2022-09-19T06:05:51;8.30;99.90
69533;DHT22;56729;52.036;5.332;2022-09-19T06:06:53;8.30;99.90
69533;DHT22;56729;52.036;5.332;2022-09-19T06:07:56;8.30;99.90
69533;DHT22;56729;52.036;5.332;2022-09-19T06:08:58;8.30;99.90
69533;DHT22;56729;52.036;5.332;2022-09-19T06:10:05;8.30;99.90
69533;DHT22;56729;52.036;5.332;2022-09-19T06:11:09;8.30;99.90
69533;DHT22;56729;52.036;5.332;2022-09-19T06:12:14;8.30;99.90
69533;DHT22;56729;52.036;5.332;2022-09-19T06:13:21;8.30;99.90
69533;DHT22;56729;52.036;5.332;2022-09-19T06:14:24;8.30;99.90
69533;DHT22;56729;52.036;5.332;2022-09-19T06:15:29;8.30;99.90
69533;DHT22;56729;52.036;5.332;2022-09-19T06:16:31;8.40;99.90
69533;DHT22;56729;52.036;5.332;2022-09-19T06:18:02;8.40;99.90
69533;DHT22;56729;52.036;5.332;2022-09-19T06:19:13;8.40;99.90
69533;DHT22;56729;52.036;5.332;2022-09-19T06:20:15;8.50;99.90
69533;DHT22;56729;52.036;5.332;2022-09-19T06:21:28;8.50;99.90
69533;DHT22;56729;52.036;5.332;2022-09-19T06:22:32;8.50;99.90
69533;DHT22;56729;52.036;5.332;2022-09-19T06:23:35;8.50;99.90
69533;DHT22;56729;52.036;5.332;2022-09-19T06:24:40;8.60;99.90
69533;DHT22;56729;52.036;5.332;2022-09-19T06:25:44;8.70;99.90
69533;DHT22;56729;52.036;5.332;2022-09-19T06:26:46;8.70;99.90
69533;DHT22;56729;52.036;5.332;2022-09-19T06:28:06;8.80;99.90
69533;DHT22;56729;52.036;5.332;2022-09-19T06:29:11;8.90;99.90
69533;DHT22;56729;52.036;5.332;2022-09-19T06:30:17;8.90;99.90
69533;DHT22;56729;52.036;5.332;2022-09-19T06:31:38;9.00;99.90
69533;DHT22;56729;52.036;5.332;2022-09-19T06:32:51;9.10;99.90
69533;DHT22;56729;52.036;5.332;2022-09-19T06:33:53;9.10;99.90
69533;DHT22;56729;52.036;5.332;2022-09-19T06:34:59;9.20;99.90
69533;DHT22;56729;52.036;5.332;2022-09-19T06:36:06;9.20;99.90
69533;DHT22;56729;52.036;5.332;2022-09-19T06:37:08;9.30;99.90
69533;DHT22;56729;52.036;5.332;2022-09-19T06:38:12;9.30;99.90
69533;DHT22;56729;52.036;5.332;2022-09-19T06:39:13;9.30;99.90
69533;DHT22;56729;52.036;5.332;2022-09-19T06:40:26;9.30;99.90
69533;DHT22;56729;52.036;5.332;2022-09-19T06:41:51;9.40;99.90
69533;DHT22;56729;52.036;5.332;2022-09-19T06:42:59;9.40;99.90
69533;DHT22;56729;52.036;5.332;2022-09-19T06:44:14;9.40;99.90
69533;DHT22;56729;52.036;5.332;2022-09-19T06:45:49;9.40;99.80
69533;DHT22;56729;52.036;5.332;2022-09-19T06:47:09;9.40;99.90
69533;DHT22;56729;52.036;5.332;2022-09-19T06:48:21;9.40;99.90
69533;DHT22;56729;52.036;5.332;2022-09-19T06:49:29;9.40;99.90
69533;DHT22;56729;52.036;5.332;2022-09-19T06:50:57;9.50;99.90
69533;DHT22;56729;52.036;5.332;2022-09-19T06:51:59;9.50;99.90
69533;DHT22;56729;52.036;5.332;2022-09-19T06:53:01;9.60;99.90
69533;DHT22;56729;52.036;5.332;2022-09-19T06:54:03;9.60;99.90
69533;DHT22;56729;52.036;5.332;2022-09-19T06:55:06;9.70;99.90
69533;DHT22;56729;52.036;5.332;2022-09-19T06:56:09;9.80;99.90
69533;DHT22;56729;52.036;5.332;2022-09-19T06:57:11;9.80;99.90
69533;DHT22;56729;52.036;5.332;2022-09-19T06:58:17;9.90;99.90
69533;DHT22;56729;52.036;5.332;2022-09-19T06:59:20;10.00;99.90
69533;DHT22;56729;52.036;5.332;2022-09-19T07:00:25;10.00;99.90
69533;DHT22;56729;52.036;5.332;2022-09-19T07:01:27;10.00;99.90
69533;DHT22;56729;52.036;5.332;2022-09-19T07:02:30;10.10;99.90
69533;DHT22;56729;52.036;5.332;2022-09-19T07:03:34;10.20;99.90
69533;DHT22;56729;52.036;5.332;2022-09-19T07:04:38;10.20;99.90
69533;DHT22;56729;52.036;5.332;2022-09-19T07:06:03;10.30;99.90
69533;DHT22;56729;52.036;5.332;2022-09-19T07:07:25;10.40;99.90
69533;DHT22;56729;52.036;5.332;2022-09-19T07:08:32;10.40;99.90
69533;DHT22;56729;52.036;5.332;2022-09-19T07:09:36;10.50;99.90
69533;DHT22;56729;52.036;5.332;2022-09-19T07:10:41;10.50;99.90
69533;DHT22;56729;52.036;5.332;2022-09-19T07:11:43;10.60;99.90
69533;DHT22;56729;52.036;5.332;2022-09-19T07:12:52;10.70;99.90
69533;DHT22;56729;52.036;5.332;2022-09-19T07:13:58;10.80;99.90
69533;DHT22;56729;52.036;5.332;2022-09-19T07:15:00;10.80;99.90
69533;DHT22;56729;52.036;5.332;2022-09-19T07:16:03;10.90;99.90
69533;DHT22;56729;52.036;5.332;2022-09-19T07:17:06;11.00;99.90
69533;DHT22;56729;52.036;5.332;2022-09-19T07:18:10;11.00;99.90
69533;DHT22;56729;52.036;5.332;2022-09-19T07:19:15;11.20;99.90
69533;DHT22;56729;52.036;5.332;2022-09-19T07:20:46;11.20;99.90
69533;DHT22;56729;52.036;5.332;2022-09-19T07:22:05;11.30;99.90
69533;DHT22;56729;52.036;5.332;2022-09-19T07:23:26;11.30;99.90
69533;DHT22;56729;52.036;5.332;2022-09-19T07:24:39;11.40;99.90
69533;DHT22;56729;52.036;5.332;2022-09-19T07:25:55;11.40;99.90
69533;DHT22;56729;52.036;5.332;2022-09-19T07:26:57;11.40;99.90
69533;DHT22;56729;52.036;5.332;2022-09-19T07:28:04;11.50;99.90
69533;DHT22;56729;52.036;5.332;2022-09-19T07:29:09;11.50;99.90
69533;DHT22;56729;52.036;5.332;2022-09-19T07:30:12;11.50;99.90
69533;DHT22;56729;52.036;5.332;2022-09-19T07:31:14;11.60;99.90
69533;DHT22;56729;52.036;5.332;2022-09-19T07:32:17;11.70;99.90
69533;DHT22;56729;52.036;5.332;2022-09-19T07:33:20;11.70;99.90
69533;DHT22;56729;52.036;5.332;2022-09-19T07:34:22;11.70;99.90
69533;DHT22;56729;52.036;5.332;2022-09-19T07:35:28;11.70;99.90
69533;DHT22;56729;52.036;5.332;2022-09-19T07:36:35;11.80;99.90
69533;DHT22;56729;52.036;5.332;2022-09-19T07:37:37;11.80;99.90
69533;DHT22;56729;52.036;5.332;2022-09-19T07:38:59;11.90;99.90
69533;DHT22;56729;52.036;5.332;2022-09-19T07:40:11;11.90;99.90
69533;DHT22;56729;52.036;5.332;2022-09-19T07:41:19;12.00;99.90
69533;DHT22;56729;52.036;5.332;2022-09-19T07:42:44;12.00;99.90
69533;DHT22;56729;52.036;5.332;2022-09-19T07:44:18;12.00;99.90
69533;DHT22;56729;52.036;5.332;2022-09-19T07:45:45;12.10;99.90
69533;DHT22;56729;52.036;5.332;2022-09-19T07:47:07;12.20;99.90
69533;DHT22;56729;52.036;5.332;2022-09-19T07:48:50;12.30;99.90
69533;DHT22;56729;52.036;5.332;2022-09-19T07:49:56;12.40;99.90